Time;durP1;ratioP1;P1;durP2;ratioP2;P2;SDS_P1;SDS_P2;PMS_P1;PMS_P2;Temp;Humidity;BMP_temperature;BMP_pressure;BME280_temperature;BME280_humidity;BME280_pressure;Samples;Min_cycle;Max_cycle;Signal;HPM_P1;HPM_P2
2021/11/08 00:02:44;;;;;;;13.03;4.00;;;;;;;7.82;65.67;100111.05;2193650;81;29724;-69
2021/11/08 00:05:45;;;;;;;8.35;3.90;;;;;;;7.80;65.78;100114.23;2181295;80;27741;-68
2021/11/08 00:08:47;;;;;;;15.40;4.17;;;;;;;7.82;65.91;100119.05;2193620;81;29040;-65
2021/11/08 00:11:49;;;;;;;14.98;4.53;;;;;;;7.83;65.95;100116.33;2188277;81;31889;-65
2021/11/08 00:14:56;;;;;;;9.80;4.47;;;;;;;7.86;66.02;100117.52;2180833;81;34194;-65
2021/11/08 00:18:18;;;;;;;7.70;3.03;;;;;;;7.89;66.10;100117.39;2180671;81;29474;-63
2021/11/08 00:21:17;;;;;;;10.65;3.30;;;;;;;7.90;66.05;100119.13;2179880;81;27690;-67
2021/11/08 00:24:23;;;;;;;9.43;3.52;;;;;;;7.93;66.01;100127.49;2180656;81;28744;-69
2021/11/08 00:27:21;;;;;;;13.30;3.20;;;;;;;7.94;66.00;100120.34;2180294;81;31412;-68
2021/11/08 00:30:24;;;;;;;7.37;3.20;;;;;;;7.92;65.93;100124.42;2180809;81;33443;-69
2021/11/08 00:33:26;;;;;;;7.15;3.10;;;;;;;7.91;65.94;100122.69;2181034;81;29354;-69
2021/11/08 00:36:28;;;;;;;10.28;2.92;;;;;;;7.89;65.97;100124.06;2180742;81;27789;-68
2021/11/08 00:39:31;;;;;;;7.10;2.87;;;;;;;7.85;65.90;100129.14;2180857;81;28817;-69
2021/11/08 00:42:33;;;;;;;8.23;2.37;;;;;;;7.81;65.86;100124.86;2182951;80;31606;-66
2021/11/08 00:45:35;;;;;;;6.80;2.47;;;;;;;7.74;65.88;100135.36;2182927;81;33563;-69
2021/11/08 00:48:38;;;;;;;9.13;2.87;;;;;;;7.65;65.91;100136.59;2183245;81;29732;-69
2021/11/08 00:51:43;;;;;;;12.28;4.20;;;;;;;7.60;66.03;100138.61;2183256;81;27738;-68
2021/11/08 00:54:44;;;;;;;10.25;2.80;;;;;;;7.54;66.07;100138.36;2182823;81;29546;-68
2021/11/08 00:57:48;;;;;;;4.53;2.70;;;;;;;7.49;66.12;100151.47;2183095;81;31650;-69
2021/11/08 01:00:51;;;;;;;14.83;3.67;;;;;;;7.42;66.13;100139.73;2182937;81;34211;-69
2021/11/08 01:03:53;;;;;;;5.85;2.45;;;;;;;7.34;66.14;100144.95;2183299;81;30014;-70
2021/11/08 01:06:59;;;;;;;8.35;2.47;;;;;;;7.26;66.31;100147.44;2183825;81;27612;-70
2021/11/08 01:09:59;;;;;;;10.55;3.00;;;;;;;7.18;66.28;100139.33;2182773;81;29559;-69
2021/11/08 01:13:01;;;;;;;10.70;2.95;;;;;;;7.11;66.34;100140.03;2183132;81;31383;-70
2021/11/08 01:16:04;;;;;;;10.40;2.40;;;;;;;7.05;66.53;100149.58;2183134;81;33041;-70
2021/11/08 01:19:07;;;;;;;9.40;2.27;;;;;;;7.01;66.73;100150.64;2183249;81;30119;-70
2021/11/08 01:22:20;;;;;;;12.78;2.75;;;;;;;7.00;66.95;100151.09;2183071;81;27651;-70
2021/11/08 01:25:22;;;;;;;13.65;3.60;;;;;;;7.02;67.11;100154.56;2183422;81;28696;-70
2021/11/08 01:28:31;;;;;;;7.22;2.75;;;;;;;7.05;67.24;100153.13;2183315;81;31423;-65
2021/11/08 01:31:29;;;;;;;5.80;2.23;;;;;;;7.10;67.32;100160.49;2182172;81;33006;-67
2021/11/08 01:34:31;;;;;;;13.00;2.92;;;;;;;7.15;67.40;100154.50;2183191;81;30446;-68
2021/11/08 01:37:33;;;;;;;7.20;2.37;;;;;;;7.21;67.48;100156.54;2183194;81;27597;-67
2021/11/08 01:40:37;;;;;;;10.38;2.70;;;;;;;7.27;67.48;100161.17;2179055;81;28636;-68
2021/11/08 01:43:39;;;;;;;12.58;2.92;;;;;;;7.34;67.48;100168.46;2164492;82;34667;-68
2021/11/08 01:46:41;;;;;;;7.80;3.30;;;;;;;7.40;67.49;100166.02;2164689;82;33110;-68
2021/11/08 01:49:43;;;;;;;11.20;3.00;;;;;;;7.44;67.42;100161.87;2164969;82;30476;-68
2021/11/08 01:52:45;;;;;;;8.53;2.62;;;;;;;7.52;67.32;100170.01;2164739;82;27710;-67
2021/11/08 01:55:46;;;;;;;9.93;2.80;;;;;;;7.56;67.35;100169.83;2160582;82;29640;-68
2021/11/08 01:58:48;;;;;;;11.05;2.65;;;;;;;7.60;67.28;100170.11;2153058;82;31326;-68
2021/11/08 02:01:53;;;;;;;6.87;2.27;;;;;;;7.64;67.23;100170.85;2146445;82;32857;-68
2021/11/08 02:04:55;;;;;;;6.80;2.50;;;;;;;7.70;67.19;100173.29;2146676;82;29322;-68
2021/11/08 02:07:56;;;;;;;9.15;2.60;;;;;;;7.73;67.10;100173.17;2156075;81;27895;-69
2021/11/08 02:10:59;;;;;;;10.75;2.58;;;;;;;7.77;67.06;100169.91;2182187;81;28395;-69
2021/11/08 02:14:02;;;;;;;11.08;3.10;;;;;;;7.81;67.00;100163.98;2178404;81;31348;-69
2021/11/08 02:17:04;;;;;;;8.35;2.22;;;;;;;7.83;66.94;100167.01;2178303;81;32385;-65
2021/11/08 02:20:20;;;;;;;10.90;2.47;;;;;;;7.87;66.79;100171.74;2154578;81;30242;-68
2021/11/08 02:23:23;;;;;;;;;;;;;;;7.88;66.83;100170.81;2122680;84;27701;-68
2021/11/08 02:26:25;;;;;;;12.82;3.25;;;;;;;7.91;66.80;100168.03;2153102;82;28577;-65
2021/11/08 02:29:27;;;;;;;8.65;2.42;;;;;;;7.92;66.77;100175.10;2175890;81;32240;-64
2021/11/08 02:32:29;;;;;;;9.78;2.80;;;;;;;7.93;66.75;100178.17;2184479;81;34286;-67
2021/11/08 02:35:31;;;;;;;8.95;2.62;;;;;;;7.96;66.71;100178.50;2184317;81;30497;-69
2021/11/08 02:38:37;;;;;;;8.80;2.58;;;;;;;7.99;66.62;100184.57;2187166;81;27636;-67
2021/11/08 02:41:37;;;;;;;8.28;2.30;;;;;;;8.01;66.59;100190.72;2186124;79;29646;-69
2021/11/08 02:44:39;;;;;;;11.83;3.12;;;;;;;8.03;66.55;100191.97;2181860;81;31259;-68
2021/11/08 02:47:45;;;;;;;12.25;3.20;;;;;;;8.05;66.49;100200.78;2216323;80;34105;-69
2021/11/08 02:50:54;;;;;;;6.72;2.02;;;;;;;8.07;66.39;100202.93;2189767;81;29716;-68
2021/11/08 02:53:59;;;;;;;9.78;3.05;;;;;;;8.08;66.44;100204.67;2188707;81;27671;-68
2021/11/08 02:56:59;;;;;;;7.75;2.40;;;;;;;8.11;66.44;100207.70;2216260;80;29182;-69
2021/11/08 03:00:05;;;;;;;12.80;3.33;;;;;;;8.11;66.39;100209.89;2189763;81;31395;-68
2021/11/08 03:03:07;;;;;;;10.63;2.67;;;;;;;8.13;66.37;100212.03;2189881;81;33705;-67
2021/11/08 03:06:16;;;;;;;11.00;2.60;;;;;;;8.15;66.27;100214.17;2172821;81;29880;-67
2021/11/08 03:09:18;;;;;;;11.30;2.62;;;;;;;8.16;66.28;100209.69;2151378;82;27632;-67
2021/11/08 03:12:27;;;;;;;10.35;2.83;;;;;;;8.18;66.32;100213.17;2177492;81;28641;-66
2021/11/08 03:15:46;;;;;;;13.83;2.67;;;;;;;8.21;66.27;100214.38;2149439;80;31391;-65
2021/11/08 03:18:39;;;;;;;12.10;2.60;;;;;;;8.23;66.25;100220.98;2147007;82;32755;-68
2021/11/08 03:21:37;;;;;;;8.88;3.77;;;;;;;8.25;66.21;100225.79;2147670;82;30930;-69
2021/11/08 03:24:43;;;;;;;9.08;2.98;;;;;;;8.27;66.25;100228.82;2143147;81;27690;-67
2021/11/08 03:27:50;;;;;;;10.63;2.42;;;;;;;8.29;66.13;100225.59;2138207;83;28622;-66
2021/11/08 03:30:51;;;;;;;9.28;2.10;;;;;;;8.30;66.10;100233.16;2150520;81;32664;-66
2021/11/08 03:33:53;;;;;;;10.28;2.60;;;;;;;8.31;66.12;100234.89;2151710;81;34179;-66
2021/11/08 03:36:56;;;;;;;7.40;2.22;;;;;;;8.31;66.04;100229.07;2151901;82;29251;-67
2021/11/08 03:39:57;;;;;;;10.70;2.67;;;;;;;8.32;65.90;100232.63;2152296;81;27745;-68
2021/11/08 03:43:01;;;;;;;17.35;3.70;;;;;;;8.32;65.98;100228.62;2179859;81;29965;-67
2021/11/08 03:46:07;;;;;;;13.08;2.83;;;;;;;8.35;65.99;100229.84;2180802;81;32355;-66
2021/11/08 03:49:08;;;;;;;10.15;2.65;;;;;;;8.32;65.89;100226.80;2180877;81;34259;-65
2021/11/08 03:52:10;;;;;;;13.13;3.40;;;;;;;8.36;65.95;100243.11;2180915;81;29320;-67
2021/11/08 03:55:12;;;;;;;11.95;2.67;;;;;;;8.36;65.86;100231.55;2181544;81;27704;-65
2021/11/08 03:58:15;;;;;;;9.88;2.22;;;;;;;8.38;65.92;100241.70;2180902;81;28797;-68
2021/11/08 04:01:17;;;;;;;11.88;2.62;;;;;;;8.40;65.87;100242.98;2180939;81;30736;-68
2021/11/08 04:04:19;;;;;;;14.75;2.65;;;;;;;8.42;65.96;100247.31;2180863;81;33447;-67
2021/11/08 04:07:21;;;;;;;6.85;2.58;;;;;;;8.44;65.90;100244.13;2180569;81;29402;-68
2021/11/08 04:10:25;;;;;;;14.53;2.80;;;;;;;8.46;65.88;100248.05;2180485;81;27765;-64
2021/11/08 04:13:36;;;;;;;10.98;2.50;;;;;;;8.47;65.81;100259.13;2180827;81;28457;-67
2021/11/08 04:16:39;;;;;;;13.38;3.40;;;;;;;8.49;65.79;100257.30;2180271;81;31801;-68
2021/11/08 04:19:42;;;;;;;12.80;3.45;;;;;;;8.47;65.76;100249.34;2180794;81;32980;-69
2021/11/08 04:22:53;;;;;;;13.45;3.15;;;;;;;8.47;65.75;100250.67;2180522;81;30185;-68
2021/11/08 04:25:58;;;;;;;15.20;4.60;;;;;;;8.47;65.76;100249.34;2180861;81;27503;-69
2021/11/08 04:29:05;;;;;;;14.43;2.72;;;;;;;8.48;65.68;100244.44;2181024;81;28646;-69
2021/11/08 04:32:06;;;;;;;14.78;2.87;;;;;;;8.47;65.70;100243.11;2179612;80;31020;-68
2021/11/08 04:35:14;;;;;;;17.63;3.40;;;;;;;8.49;65.73;100245.28;2181070;81;33785;-69
2021/11/08 04:38:40;;;;;;;8.80;2.55;;;;;;;8.49;65.73;100247.51;2180411;81;30304;-67
2021/11/08 04:41:45;;;;;;;7.70;2.58;;;;;;;8.51;65.75;100242.98;2179054;81;27578;-68
2021/11/08 04:45:14;;;;;;;7.50;2.40;;;;;;;8.53;65.78;100248.23;2178248;81;29772;-65
2021/11/08 04:48:10;;;;;;;9.78;2.80;;;;;;;8.54;65.77;100249.09;2175087;81;31153;-68
2021/11/08 04:51:17;;;;;;;10.55;2.67;;;;;;;8.54;65.76;100243.30;2176625;81;34540;-68
2021/11/08 05:30:37;;;;;;;12.88;3.27;;;;;;;8.44;65.83;100269.97;2218418;80;27697;-67
2021/11/08 05:33:39;;;;;;;10.93;2.40;;;;;;;8.43;65.83;100267.74;2218620;80;30009;-67
2021/11/08 05:36:42;;;;;;;11.60;2.35;;;;;;;8.41;65.79;100274.94;2176317;80;32328;-68
2021/11/08 05:39:52;;;;;;;10.90;2.70;;;;;;;8.41;65.86;100272.27;2156070;82;32952;-67
2021/11/08 05:42:49;;;;;;;14.55;2.98;;;;;;;8.41;65.89;100280.77;2155025;81;30098;-67
2021/11/08 05:45:51;;;;;;;12.18;4.10;;;;;;;8.42;65.91;100283.36;2179777;80;27583;-67
2021/11/08 05:48:53;;;;;;;13.18;3.55;;;;;;;8.43;65.90;100286.91;2218846;80;28837;-65
2021/11/08 05:51:55;;;;;;;12.47;2.60;;;;;;;8.44;65.96;100290.84;2218939;80;31364;-69
2021/11/08 05:54:56;;;;;;;17.23;3.05;;;;;;;8.46;66.02;100291.65;2214389;80;34327;-68
2021/11/08 06:51:03;;;;;;;10.60;3.37;;;;;;;8.42;68.97;100390.14;2093086;85;27752;-69
2021/11/08 06:54:05;;;;;;;12.58;3.25;;;;;;;8.45;69.23;100395.36;2094608;84;29712;-69
2021/11/08 06:57:16;;;;;;;11.05;3.27;;;;;;;8.45;69.30;100394.48;2057887;86;32251;-69
2021/11/08 07:00:22;;;;;;;14.95;3.42;;;;;;;8.44;69.30;100402.11;2057880;86;34192;-66
2021/11/08 07:03:24;;;;;;;11.15;3.22;;;;;;;8.44;69.46;100402.11;2058206;86;30469;-67
2021/11/08 07:06:26;;;;;;;7.80;3.17;;;;;;;8.45;69.50;100412.72;2057985;86;27844;-70
2021/11/08 07:09:32;;;;;;;12.45;3.15;;;;;;;8.46;69.66;100413.13;2058063;85;29957;-66
2021/11/08 07:12:34;;;;;;;19.25;4.03;;;;;;;8.51;69.67;100416.53;2057881;86;31905;-67
2021/11/08 07:15:36;;;;;;;16.15;4.08;;;;;;;8.57;69.73;100416.75;2058149;86;33950;-68
2021/11/08 07:18:39;;;;;;;16.37;3.70;;;;;;;8.62;69.69;100425.91;2057886;86;30815;-65
2021/11/08 07:21:42;;;;;;;16.23;3.90;;;;;;;8.64;69.80;100426.72;2059716;85;27930;-68
2021/11/08 07:24:45;;;;;;;8.45;3.40;;;;;;;8.68;69.87;100425.67;2079740;85;28710;-65
2021/11/08 07:27:47;;;;;;;14.07;4.30;;;;;;;8.69;69.77;100429.20;2134328;81;31952;-64
2021/11/08 07:30:50;;;;;;;10.75;3.47;;;;;;;8.71;69.87;100429.53;2156136;82;33745;-69
2021/11/08 07:33:52;;;;;;;14.95;4.05;;;;;;;8.71;69.69;100430.87;2184314;81;29407;-67
2021/11/08 07:36:54;;;;;;;12.40;3.58;;;;;;;8.73;69.82;100435.69;2186817;81;27710;-63
2021/11/08 07:40:00;;;;;;;12.58;4.20;;;;;;;8.79;69.78;100438.57;2186606;81;29910;-69
2021/11/08 07:43:02;;;;;;;15.90;4.00;;;;;;;8.81;69.71;100441.61;2190243;80;31187;-69
2021/11/08 07:46:05;;;;;;;13.45;3.95;;;;;;;8.82;69.65;100449.14;2187059;81;34196;-67
2021/11/08 07:49:08;;;;;;;11.40;3.02;;;;;;;8.87;69.61;100451.63;2186567;81;29383;-67
2021/11/08 07:52:10;;;;;;;11.63;4.12;;;;;;;8.93;69.66;100446.05;2186925;81;27675;-66
2021/11/08 07:55:13;;;;;;;13.75;4.20;;;;;;;9.02;69.74;100446.98;2196169;80;29677;-70
2021/11/08 07:58:15;;;;;;;9.73;4.03;;;;;;;9.12;69.58;100452.83;2184835;81;32064;-67
2021/11/08 08:01:18;;;;;;;8.68;3.98;;;;;;;9.19;69.50;100453.44;2218523;80;33183;-66
2021/11/08 08:04:20;;;;;;;14.80;3.52;;;;;;;9.24;69.34;100459.48;2184872;81;30540;-65
2021/11/08 08:07:22;;;;;;;12.50;4.00;;;;;;;9.25;69.22;100465.23;2157104;80;27715;-67
2021/11/08 08:10:24;;;;;;;8.88;4.20;;;;;;;9.27;69.26;100464.70;2186673;81;29811;-67
2021/11/08 08:13:28;;;;;;;16.90;6.40;;;;;;;9.32;69.11;100465.84;2186189;81;32019;-66
2021/11/08 08:16:31;;;;;;;13.10;4.77;;;;;;;9.36;69.23;100468.80;2147198;82;33119;-66
2021/11/08 08:19:33;;;;;;;10.82;3.42;;;;;;;9.45;69.35;100468.39;2185985;81;30503;-67
2021/11/08 08:22:35;;;;;;;12.13;3.77;;;;;;;9.51;69.20;100468.14;2182918;81;27704;-70
2021/11/08 08:25:38;;;;;;;12.55;3.17;;;;;;;9.54;69.10;100477.83;2183632;81;29248;-67
2021/11/08 08:28:40;;;;;;;11.12;4.33;;;;;;;9.59;69.06;100481.19;2183166;81;32181;-72
2021/11/08 08:31:46;;;;;;;7.40;2.55;;;;;;;9.62;68.96;100492.22;2183119;81;32954;-68
2021/11/08 08:34:49;;;;;;;11.88;3.37;;;;;;;9.66;68.87;100489.38;2183384;81;29461;-68
2021/11/08 08:37:51;;;;;;;7.08;2.50;;;;;;;9.72;68.80;100489.57;2183709;81;27458;-70
2021/11/08 08:40:55;;;;;;;15.90;4.00;;;;;;;9.77;68.75;100490.70;2183561;81;28680;-70
2021/11/08 08:43:57;;;;;;;13.62;3.52;;;;;;;9.83;68.64;100491.30;2172446;81;32420;-66
2021/11/08 08:46:59;;;;;;;6.28;2.70;;;;;;;9.91;68.60;100500.81;2164231;82;34378;-70
2021/11/08 08:50:01;;;;;;;10.10;3.02;;;;;;;9.98;68.43;100507.17;2175781;81;30895;-65
2021/11/08 08:53:04;;;;;;;8.55;2.67;;;;;;;10.05;68.48;100518.47;2168067;81;27689;-65
2021/11/08 08:56:06;;;;;;;9.08;2.87;;;;;;;10.09;68.28;100520.53;2164555;82;29666;-66
2021/11/08 08:59:08;;;;;;;9.70;2.50;;;;;;;10.09;68.37;100509.83;2164555;82;32348;-74
2021/11/08 09:02:12;;;;;;;8.20;2.77;;;;;;;10.09;68.16;100516.07;2165708;81;33315;-75
2021/11/08 09:05:14;;;;;;;7.60;3.13;;;;;;;10.10;68.23;100519.12;2180705;81;30122;-62
2021/11/08 09:08:18;;;;;;;11.55;3.67;;;;;;;10.11;68.40;100519.52;2180727;81;27643;-66
2021/11/08 09:11:21;;;;;;;7.10;2.45;;;;;;;10.13;68.27;100521.66;2174727;81;28652;-69
2021/11/08 09:14:24;;;;;;;11.75;4.37;;;;;;;10.21;68.31;100524.48;2164105;82;31175;-69
2021/11/08 09:17:26;;;;;;;23.38;13.93;;;;;;;10.25;68.27;100520.25;2164174;82;33038;-71
2021/11/08 09:20:29;;;;;;;8.85;4.65;;;;;;;10.30;68.39;100524.95;2188713;80;29350;-70
2021/11/08 09:23:31;;;;;;;9.05;3.12;;;;;;;10.38;68.45;100527.73;2193252;81;27693;-69
2021/11/08 09:26:36;;;;;;;10.20;4.20;;;;;;;10.41;68.41;100529.85;2200240;80;29908;-69
2021/11/08 09:29:37;;;;;;;9.93;4.33;;;;;;;10.44;68.54;100539.55;2199027;80;31829;-69
2021/11/08 09:32:39;;;;;;;11.25;3.67;;;;;;;10.42;68.52;100538.74;2199854;80;33357;-70
2021/11/08 09:35:48;;;;;;;11.60;5.17;;;;;;;10.46;68.44;100541.20;2199604;80;30524;-70
2021/11/08 09:38:56;;;;;;;6.35;3.72;;;;;;;10.50;68.44;100544.64;2199869;80;28332;-70
2021/11/08 09:41:58;;;;;;;17.35;6.15;;;;;;;10.59;68.48;100544.69;2198682;80;28655;-70
2021/11/08 09:45:03;;;;;;;13.38;5.22;;;;;;;10.74;68.37;100550.68;2201667;80;31479;-72
2021/11/08 09:48:06;;;;;;;12.60;5.25;;;;;;;10.83;68.23;100556.53;2202026;80;33960;-69
2021/11/08 09:51:11;;;;;;;9.78;4.53;;;;;;;10.86;68.03;100554.57;2218069;80;29385;-69
2021/11/08 09:54:16;;;;;;;14.05;5.85;;;;;;;10.97;68.02;100553.22;2185504;81;27759;-69
2021/11/08 09:57:17;;;;;;;7.60;2.97;;;;;;;11.03;67.65;100548.89;2214842;80;28477;-69
2021/11/08 10:00:27;;;;;;;9.30;2.77;;;;;;;11.10;67.55;100557.05;2185126;81;31422;-67
2021/11/08 10:03:32;;;;;;;7.47;3.87;;;;;;;11.18;67.32;100558.02;2218066;80;34161;-69
2021/11/08 10:06:37;;;;;;;10.28;3.70;;;;;;;11.28;67.25;100552.59;2185147;81;29703;-68
2021/11/08 10:09:38;;;;;;;6.45;2.27;;;;;;;11.39;67.09;100556.98;2218352;80;27642;-68
2021/11/08 10:12:40;;;;;;;8.08;2.90;;;;;;;11.54;66.99;100545.95;2185326;81;29849;-68
2021/11/08 10:15:46;;;;;;;4.65;2.35;;;;;;;11.67;66.69;100539.97;2218452;80;30195;-68
2021/11/08 10:18:52;;;;;;;4.75;2.08;;;;;;;11.76;66.51;100538.63;2162809;81;32978;-67
2021/11/08 10:21:56;;;;;;;3.83;1.90;;;;;;;11.86;66.25;100547.48;2189512;81;29304;-69
2021/11/08 10:25:03;;;;;;;3.90;2.00;;;;;;;11.91;65.82;100539.67;2185541;81;27682;-70
2021/11/08 10:28:17;;;;;;;5.83;2.60;;;;;;;12.05;66.03;100543.03;2183253;81;28635;-70
2021/11/08 10:31:19;;;;;;;5.42;3.35;;;;;;;12.20;65.51;100551.63;2183121;81;32180;-72
2021/11/08 10:34:23;;;;;;;10.00;4.55;;;;;;;12.28;65.48;100556.11;2183156;81;33327;-71
2021/11/08 10:37:29;;;;;;;5.60;3.95;;;;;;;12.34;65.08;100558.94;2182851;81;29443;-67
2021/11/08 10:40:40;;;;;;;8.20;6.22;;;;;;;12.36;64.94;100552.16;2160764;81;27740;-70
2021/11/08 10:43:53;;;;;;;11.50;7.28;;;;;;;12.34;64.71;100560.28;2183187;81;29817;-68
2021/11/08 10:47:05;;;;;;;7.20;2.35;;;;;;;12.27;64.67;100560.23;2182874;81;31944;-69
2021/11/08 10:50:15;;;;;;;3.27;2.10;;;;;;;12.28;64.41;100558.80;2183145;81;33703;-68
2021/11/08 10:53:19;;;;;;;2.55;1.62;;;;;;;12.26;64.42;100563.38;2183015;81;30107;-69
2021/11/08 10:56:29;;;;;;;4.53;2.37;;;;;;;12.23;64.19;100554.62;2182883;81;27734;-68
2021/11/08 10:59:35;;;;;;;3.42;1.80;;;;;;;12.22;64.11;100565.85;2183125;81;29850;-70
2021/11/08 11:02:36;;;;;;;6.90;4.62;;;;;;;12.14;64.27;100561.34;2183156;81;30955;-70
2021/11/08 11:05:41;;;;;;;4.80;3.83;;;;;;;12.12;64.29;100576.20;2182568;81;34294;-68
2021/11/08 11:08:51;;;;;;;3.08;1.95;;;;;;;12.10;64.33;100574.52;2182785;81;28784;-72
2021/11/08 11:12:14;;;;;;;3.98;1.75;;;;;;;12.08;64.30;100578.64;2183065;81;27628;-69
2021/11/08 11:15:28;;;;;;;2.12;1.70;;;;;;;12.03;64.13;100579.83;2183308;81;29487;-71
2021/11/08 11:18:37;;;;;;;3.60;2.85;;;;;;;12.02;64.23;100578.95;2183160;81;30958;-71
2021/11/08 11:21:53;;;;;;;7.10;3.00;;;;;;;12.00;64.18;100586.20;2183068;81;32966;-68
2021/11/08 11:24:56;;;;;;;6.15;3.87;;;;;;;11.98;64.12;100590.33;2181555;81;30455;-66
2021/11/08 11:28:00;;;;;;;8.85;6.25;;;;;;;11.98;64.03;100590.78;2182996;81;28013;-66
2021/11/08 11:31:21;;;;;;;4.22;2.98;;;;;;;11.99;64.02;100592.06;2183079;81;29891;-70
2021/11/08 11:34:22;;;;;;;4.78;3.50;;;;;;;11.96;63.79;100581.94;2182601;80;32396;-70
2021/11/08 11:37:27;;;;;;;5.37;3.05;;;;;;;11.92;63.96;100584.38;2182617;81;33265;-71
2021/11/08 11:40:34;;;;;;;4.25;2.17;;;;;;;11.90;64.04;100591.62;2183247;81;28809;-67
2021/11/08 11:43:51;;;;;;;3.62;2.85;;;;;;;11.85;64.05;100586.02;2180848;81;27668;-63
2021/11/08 11:46:56;;;;;;;3.22;1.98;;;;;;;11.85;64.06;100587.84;2152117;82;29896;-70
2021/11/08 11:49:58;;;;;;;4.83;3.12;;;;;;;11.84;63.87;100588.78;2152478;82;32247;-72
2021/11/08 11:53:03;;;;;;;10.75;6.20;;;;;;;11.82;63.95;100590.22;2145992;83;34199;-69
2021/11/08 11:56:05;;;;;;;7.00;4.25;;;;;;;11.78;63.61;100601.16;2168621;81;33176;-60
2021/11/08 11:59:11;;;;;;;7.80;5.45;;;;;;;11.72;63.62;100608.20;2178239;81;27609;-70
2021/11/08 12:02:18;;;;;;;2.77;2.35;;;;;;;11.63;63.38;100605.49;2177951;81;29539;-66
2021/11/08 12:05:21;;;;;;;3.87;3.37;;;;;;;11.53;63.31;100603.73;2148052;81;31097;-65
2021/11/08 12:08:34;;;;;;;3.98;2.98;;;;;;;11.45;63.63;100609.47;2121118;83;33889;-62
2021/11/08 12:11:48;;;;;;;4.28;2.47;;;;;;;11.42;63.76;100608.76;2190390;81;30401;-65
2021/11/08 12:15:09;;;;;;;4.50;2.90;;;;;;;11.35;63.78;100613.52;2163941;82;27557;-63
2021/11/08 12:18:15;;;;;;;3.50;2.20;;;;;;;11.28;63.92;100613.43;2163988;82;29862;-72
2021/11/08 12:21:25;;;;;;;5.03;2.22;;;;;;;11.24;64.01;100616.25;2163939;82;31081;-74
2021/11/08 12:24:31;;;;;;;2.12;1.70;;;;;;;11.24;64.21;100614.91;2160436;82;32986;-67
2021/11/08 12:27:40;;;;;;;3.42;2.40;;;;;;;11.29;64.23;100615.17;2152342;82;29575;-68
2021/11/08 12:30:49;;;;;;;3.00;2.42;;;;;;;11.29;64.11;100606.64;2152316;82;27849;-71
2021/11/08 12:34:05;;;;;;;8.08;2.77;;;;;;;11.30;64.19;100603.50;2152710;82;29060;-70
2021/11/08 12:37:07;;;;;;;;;;;;;;;11.31;64.20;100606.59;2165914;82;30810;-69
2021/11/08 12:40:11;;;;;;;3.02;2.33;;;;;;;11.33;64.14;100599.34;2160644;82;33368;-60
2021/11/08 12:43:28;;;;;;;3.60;2.87;;;;;;;11.32;64.06;100598.94;2128132;82;29396;-61
2021/11/08 12:46:47;;;;;;;6.37;4.25;;;;;;;11.33;64.25;100594.83;2160179;81;27697;-75
2021/11/08 12:49:55;;;;;;;4.12;3.00;;;;;;;11.39;64.20;100598.56;2193153;80;29294;-59
2021/11/08 12:52:57;;;;;;;20.75;11.50;;;;;;;11.39;64.00;100595.89;2185097;81;31881;-78
2021/11/08 12:56:08;;;;;;;9.50;5.60;;;;;;;11.36;63.97;100596.48;2184784;81;34184;-78
2021/11/08 12:59:30;;;;;;;9.93;5.08;;;;;;;11.32;64.03;100602.47;2218465;80;29318;-76
2021/11/08 13:02:39;;;;;;;9.58;6.17;;;;;;;11.27;63.99;100603.64;2147825;81;27710;-78
2021/11/08 13:05:42;;;;;;;4.58;4.03;;;;;;;11.18;64.20;100605.80;2189241;81;28649;-68
2021/11/08 13:08:44;;;;;;;6.15;4.30;;;;;;;11.18;64.30;100615.67;2184852;81;31190;-78
2021/11/08 13:11:57;;;;;;;10.20;3.87;;;;;;;11.13;64.20;100613.67;2183216;81;34095;-79
2021/11/08 13:15:20;;;;;;;9.03;6.65;;;;;;;11.06;64.24;100616.66;2182815;81;29773;-67
2021/11/08 13:18:21;;;;;;;15.72;7.92;;;;;;;10.97;64.32;100618.89;2183305;81;27580;-72
2021/11/08 13:21:25;;;;;;;15.78;8.28;;;;;;;10.89;64.46;100620.10;2183146;81;29013;-61
2021/11/08 13:24:30;;;;;;;12.47;7.22;;;;;;;10.85;64.53;100621.66;2183130;81;31062;-78
2021/11/08 13:27:31;;;;;;;12.95;6.65;;;;;;;10.81;64.57;100624.08;2183022;80;33854;-76
2021/11/08 13:30:47;;;;;;;7.05;4.95;;;;;;;10.77;64.74;100625.55;2183061;81;29364;-67
2021/11/08 13:33:52;;;;;;;6.28;4.55;;;;;;;10.76;64.87;100626.48;2183487;81;27731;-76
2021/11/08 13:36:55;;;;;;;11.78;8.73;;;;;;;10.75;65.01;100634.16;2183143;81;28427;-59
2021/11/08 13:40:01;;;;;;;8.10;6.67;;;;;;;10.77;65.18;100632.25;2155486;81;31484;-65
2021/11/08 13:43:19;;;;;;;6.10;4.50;;;;;;;10.76;65.14;100630.50;2182390;80;33005;-79
2021/11/08 13:46:26;;;;;;;9.93;5.85;;;;;;;10.79;65.17;100630.37;2167656;80;29505;-59
2021/11/08 13:49:29;;;;;;;5.05;3.52;;;;;;;10.81;65.21;100633.00;2162105;82;27735;-60
2021/11/08 13:52:31;;;;;;;5.17;4.20;;;;;;;10.81;65.20;100630.32;2140200;82;29070;-58
2021/11/08 13:55:34;;;;;;;8.68;6.35;;;;;;;10.88;65.25;100630.91;2145900;83;32205;-62
2021/11/08 13:58:39;;;;;;;11.53;7.72;;;;;;;10.92;65.18;100636.05;2146660;83;33634;-74
2021/11/08 14:01:44;;;;;;;16.00;7.62;;;;;;;10.95;65.12;100641.73;2158637;81;30074;-71
2021/11/08 14:04:51;;;;;;;14.98;7.83;;;;;;;10.96;65.21;100642.62;2164271;82;27721;-73
2021/11/08 14:08:00;;;;;;;14.25;9.05;;;;;;;10.94;65.18;100650.26;2164196;82;29549;-70
2021/11/08 14:11:03;;;;;;;16.52;10.05;;;;;;;10.97;65.25;100645.22;2164200;82;31021;-76
2021/11/08 14:14:10;;;;;;;9.85;5.00;;;;;;;11.00;65.25;100649.10;2163789;82;33564;-75
2021/11/08 14:17:18;;;;;;;7.28;5.30;;;;;;;11.01;65.08;100648.62;2162676;82;29334;-68
2021/11/08 14:20:19;;;;;;;7.65;4.70;;;;;;;10.98;65.11;100651.47;2161951;82;27664;-68
2021/11/08 14:23:28;;;;;;;9.85;5.95;;;;;;;10.93;65.24;100663.71;2152317;82;29089;-61
2021/11/08 14:26:32;;;;;;;13.88;7.37;;;;;;;10.89;65.47;100664.33;2152370;82;31032;-63
2021/11/08 14:29:34;;;;;;;17.05;8.45;;;;;;;10.85;65.52;100676.61;2152437;82;32994;-66
2021/11/08 14:32:39;;;;;;;11.53;7.15;;;;;;;10.79;65.55;100679.09;2163161;82;29888;-66
2021/11/08 14:35:44;;;;;;;10.53;6.80;;;;;;;10.73;65.80;100682.03;2159673;82;27581;-61
2021/11/08 14:38:57;;;;;;;13.62;8.43;;;;;;;10.64;65.89;100677.50;2152329;82;29871;-62
2021/11/08 14:42:05;;;;;;;14.30;9.15;;;;;;;10.56;66.19;100684.13;2152084;81;31032;-59
2021/11/08 14:45:19;;;;;;;12.35;8.05;;;;;;;10.51;66.45;100683.45;2174960;80;33080;-60
2021/11/08 14:48:26;;;;;;;20.35;12.65;;;;;;;10.45;66.69;100692.62;2222507;80;30274;-58
2021/11/08 14:51:28;;;;;;;23.83;14.00;;;;;;;10.37;66.84;100694.26;2189784;81;27729;-58
2021/11/08 14:54:33;;;;;;;17.35;10.23;;;;;;;10.32;67.06;100700.27;2181708;81;28699;-60
2021/11/08 14:57:36;;;;;;;;;;;;;;;10.25;67.01;100697.46;2192292;81;31080;-59
2021/11/08 15:00:41;;;;;;;14.70;9.03;;;;;;;10.20;67.14;100697.63;2201384;80;33112;-59
2021/11/08 15:03:42;;;;;;;18.17;9.43;;;;;;;10.15;67.10;100705.00;2199570;80;30658;-60
2021/11/08 15:06:57;;;;;;;20.50;10.35;;;;;;;10.11;67.19;100704.23;2192110;80;27652;-61
2021/11/08 15:10:03;;;;;;;19.30;10.70;;;;;;;10.08;67.25;100708.41;2200179;80;28643;-62
2021/11/08 15:13:08;;;;;;;10.78;8.18;;;;;;;10.03;67.28;100707.23;2202682;80;31722;-59
2021/11/08 15:16:11;;;;;;;;;;;;;;;9.98;67.32;100711.92;2204852;80;32957;-59
2021/11/08 15:19:19;;;;;;;14.70;8.03;;;;;;;9.94;67.35;100715.64;2201781;80;29000;-59
2021/11/08 15:22:29;;;;;;;15.70;8.08;;;;;;;9.87;67.42;100730.19;2172714;80;27707;-60
2021/11/08 15:25:48;;;;;;;13.40;7.92;;;;;;;9.84;67.47;100720.98;2188773;80;27656;-63
2021/11/08 15:28:56;;;;;;;17.85;9.20;;;;;;;9.82;67.52;100721.02;2159137;82;28062;-66
2021/11/08 15:32:02;;;;;;;17.85;11.48;;;;;;;9.80;67.65;100731.39;2150148;82;32968;-60
2021/11/08 15:35:11;;;;;;;21.15;11.57;;;;;;;9.82;67.95;100736.22;2149722;82;29490;-64
2021/11/08 15:38:17;;;;;;;26.62;13.88;;;;;;;9.80;68.14;100740.27;2164120;81;28114;-66
2021/11/08 15:41:20;;;;;;;22.42;10.05;;;;;;;9.80;68.70;100740.27;2164264;80;30035;-61
2021/11/08 15:44:24;;;;;;;19.80;10.38;;;;;;;9.75;68.73;100742.73;2164348;82;31181;-62
2021/11/08 15:47:28;;;;;;;20.20;10.65;;;;;;;9.69;69.11;100749.19;2151480;81;29757;-68
2021/11/08 15:50:30;;;;;;;19.42;12.25;;;;;;;9.65;69.25;100751.12;2151031;82;30239;-65
2021/11/08 15:53:32;;;;;;;20.17;13.58;;;;;;;9.64;69.54;100748.48;2169755;81;27788;-64